createdAt,value
2022-12-03T00:00:15.575Z,27.50
2022-12-03T00:02:43.402Z,27.27
2022-12-03T00:05:11.478Z,32.23
2022-12-03T00:07:39.396Z,27.97
2022-12-03T00:10:08.852Z,26.50
2022-12-03T00:12:36.797Z,25.50
2022-12-03T00:15:05.828Z,22.67
2022-12-03T00:17:33.703Z,23.17
2022-12-03T00:20:01.475Z,28.10
2022-12-03T00:22:31.371Z,26.57
2022-12-03T00:24:59.120Z,28.23
2022-12-03T00:27:26.630Z,28.63
2022-12-03T00:29:54.324Z,26.40
2022-12-03T00:32:22.023Z,27.87
2022-12-03T00:34:50.007Z,23.80
2022-12-03T00:37:17.836Z,28.33
2022-12-03T00:39:45.574Z,27.97
2022-12-03T00:42:13.491Z,28.03
2022-12-03T00:44:41.473Z,26.90
2022-12-03T00:47:10.128Z,24.47
2022-12-03T00:49:37.906Z,27.07
2022-12-03T00:52:05.659Z,23.53
2022-12-03T00:54:33.075Z,25.53
2022-12-03T00:57:00.778Z,27.10
2022-12-03T00:59:28.438Z,24.90
2022-12-03T01:01:56.267Z,25.53
2022-12-03T01:04:24.123Z,25.23
2022-12-03T01:06:51.865Z,25.10
2022-12-03T01:09:19.337Z,22.20
2022-12-03T01:11:47.078Z,28.83
2022-12-03T01:14:18.815Z,25.57
2022-12-03T01:16:47.358Z,24.75
2022-12-03T01:19:16.536Z,27.90
2022-12-03T01:21:45.779Z,27.13
2022-12-03T01:24:13.425Z,29.23
2022-12-03T01:26:41.205Z,21.17
2022-12-03T01:29:08.769Z,24.17
2022-12-03T01:31:51.783Z,24.93
2022-12-03T01:34:19.481Z,23.90
2022-12-03T01:36:47.171Z,23.37
2022-12-03T01:39:14.815Z,26.30
2022-12-03T01:41:42.723Z,27.40
2022-12-03T01:44:18.491Z,34.30
2022-12-03T01:46:46.580Z,24.27
2022-12-03T01:49:20.523Z,23.33
2022-12-03T01:51:49.901Z,26.37
2022-12-03T01:54:22.469Z,28.43
2022-12-03T01:56:50.272Z,26.00
2022-12-03T01:59:22.092Z,28.37
2022-12-03T02:01:50.147Z,31.83
2022-12-03T02:04:20.998Z,31.10
2022-12-03T02:06:48.832Z,27.57
2022-12-03T02:09:16.457Z,30.13
2022-12-03T02:11:47.283Z,27.57
2022-12-03T02:14:20.827Z,25.07
2022-12-03T02:16:49.160Z,28.90
2022-12-03T02:19:25.508Z,28.93
2022-12-03T02:22:19.703Z,28.90
2022-12-03T02:24:59.040Z,25.57
2022-12-03T02:27:28.612Z,28.37
2022-12-03T02:29:56.449Z,27.13
2022-12-03T02:32:24.306Z,27.20
2022-12-03T02:34:52.493Z,26.57
2022-12-03T02:37:25.933Z,30.67
2022-12-03T02:39:57.672Z,26.00
2022-12-03T02:42:40.849Z,22.13
2022-12-03T02:45:14.858Z,28.57
2022-12-03T02:47:46.051Z,27.43
2022-12-03T02:50:17.730Z,23.70
2022-12-03T02:52:46.670Z,26.33
2022-12-03T02:55:17.302Z,27.30
2022-12-03T02:57:48.236Z,25.93
2022-12-03T03:00:17.783Z,27.20
2022-12-03T03:02:47.331Z,30.40
2022-12-03T03:05:16.254Z,25.00
2022-12-03T03:07:44.489Z,26.50
2022-12-03T03:10:15.384Z,26.83
2022-12-03T03:12:46.306Z,27.43
2022-12-03T03:15:14.767Z,29.70
2022-12-03T03:17:43.300Z,31.80
2022-12-03T03:20:13.427Z,26.20
2022-12-03T03:22:43.061Z,28.57
2022-12-03T03:25:15.556Z,26.00
2022-12-03T03:27:43.682Z,23.73
2022-12-03T03:30:14.599Z,28.17
2022-12-03T03:32:43.596Z,24.03
2022-12-03T03:35:12.061Z,25.90
2022-12-03T03:37:39.831Z,23.60
2022-12-03T03:40:08.194Z,22.67
2022-12-03T03:42:36.075Z,26.90
2022-12-03T03:45:03.914Z,27.40
2022-12-03T03:47:31.871Z,29.67
2022-12-03T03:49:59.583Z,22.80
2022-12-03T03:52:27.085Z,24.03
2022-12-03T03:54:55.104Z,22.20
2022-12-03T03:57:22.699Z,23.87
2022-12-03T03:59:50.489Z,26.97
2022-12-03T04:02:22.868Z,28.43
2022-12-03T04:04:51.153Z,25.60
2022-12-03T04:07:19.007Z,23.33
2022-12-03T04:09:46.759Z,25.37
2022-12-03T04:12:29.816Z,25.13
2022-12-03T04:14:57.873Z,29.07
2022-12-03T04:17:25.540Z,27.20
2022-12-03T04:19:53.366Z,25.97
2022-12-03T04:22:36.631Z,27.87
2022-12-03T04:25:19.976Z,27.80
2022-12-03T04:28:03.048Z,20.57
2022-12-03T04:30:30.838Z,23.47
2022-12-03T04:33:14.051Z,23.07
2022-12-03T04:35:42.879Z,31.93
2022-12-03T04:38:11.705Z,25.13
2022-12-03T04:40:55.061Z,23.87
2022-12-03T04:43:22.747Z,20.40
2022-12-03T04:45:50.396Z,24.37
2022-12-03T04:48:18.202Z,27.63
2022-12-03T04:50:45.908Z,24.90
2022-12-03T04:53:13.486Z,29.33
2022-12-03T04:55:40.882Z,25.10
2022-12-03T04:58:08.638Z,26.20
2022-12-03T05:00:36.108Z,21.00
2022-12-03T05:03:03.922Z,18.83
2022-12-03T05:05:31.679Z,24.50
2022-12-03T05:07:59.095Z,18.47
2022-12-03T05:10:26.502Z,23.93
2022-12-03T05:12:55.452Z,27.30
2022-12-03T05:15:26.217Z,24.33
2022-12-03T05:17:53.937Z,28.97
2022-12-03T05:20:36.920Z,19.83
2022-12-03T05:23:04.302Z,20.13
2022-12-03T05:25:32.010Z,22.77
2022-12-03T05:27:59.690Z,18.90
2022-12-03T05:30:27.861Z,23.07
2022-12-03T05:32:55.452Z,26.03
2022-12-03T05:35:23.231Z,21.37
2022-12-03T05:37:51.071Z,26.47
2022-12-03T05:40:19.788Z,22.87
2022-12-03T05:42:55.212Z,28.27
2022-12-03T05:45:28.133Z,23.80
2022-12-03T05:47:56.969Z,23.10
2022-12-03T05:50:30.282Z,26.27
2022-12-03T05:53:02.356Z,27.93
2022-12-03T05:55:30.628Z,30.17
2022-12-03T05:57:58.774Z,26.17
2022-12-03T06:00:30.767Z,25.97
2022-12-03T06:03:01.175Z,31.73
2022-12-03T06:05:29.463Z,26.43
2022-12-03T06:08:02.105Z,26.60
2022-12-03T06:10:31.863Z,30.40
2022-12-03T06:13:04.203Z,24.83
2022-12-03T06:15:32.357Z,32.35
2022-12-03T06:18:00.492Z,28.90
2022-12-03T06:20:27.866Z,32.50
2022-12-03T06:22:55.642Z,25.73
2022-12-03T06:25:23.107Z,33.53
2022-12-03T06:27:50.880Z,30.13
2022-12-03T06:30:18.768Z,29.07
2022-12-03T06:32:46.166Z,36.53
2022-12-03T06:35:13.537Z,30.27
2022-12-03T06:37:41.299Z,34.20
2022-12-03T06:40:09.183Z,35.67
2022-12-03T06:42:37.161Z,30.70
2022-12-03T06:45:05.032Z,29.83
2022-12-03T06:47:32.913Z,33.67
2022-12-03T06:50:00.803Z,28.93
2022-12-03T06:52:28.507Z,34.90
2022-12-03T06:54:56.774Z,30.33
2022-12-03T06:57:24.625Z,31.73
2022-12-03T06:59:52.656Z,35.93
2022-12-03T07:02:20.490Z,29.73
2022-12-03T07:04:48.349Z,27.80
2022-12-03T07:07:16.330Z,31.47
2022-12-03T07:09:44.271Z,28.07
2022-12-03T07:12:12.093Z,31.83
2022-12-03T07:14:39.902Z,32.93
2022-12-03T07:17:10.263Z,32.43
2022-12-03T07:19:38.070Z,35.43
2022-12-03T07:22:06.014Z,30.70
2022-12-03T07:24:33.749Z,33.27
2022-12-03T07:27:01.485Z,32.60
2022-12-03T07:29:29.282Z,35.53
2022-12-03T07:31:57.132Z,29.33
2022-12-03T07:34:24.828Z,28.13
2022-12-03T07:36:52.667Z,28.10
2022-12-03T07:39:20.594Z,31.30
2022-12-03T07:41:48.309Z,33.67
2022-12-03T07:44:16.028Z,27.63
2022-12-03T07:46:43.844Z,37.00
2022-12-03T07:49:12.461Z,33.40
2022-12-03T07:51:40.486Z,31.37
2022-12-03T07:54:08.318Z,34.00
2022-12-03T07:56:36.443Z,30.90
2022-12-03T07:59:04.805Z,34.47
2022-12-03T08:01:32.647Z,34.87
2022-12-03T08:04:00.235Z,31.30
2022-12-03T08:06:27.899Z,29.50
2022-12-03T08:08:55.618Z,35.30
2022-12-03T08:11:23.170Z,30.70
2022-12-03T08:13:50.871Z,29.27
2022-12-03T08:16:21.097Z,31.70
2022-12-03T08:18:50.628Z,26.50
2022-12-03T08:21:21.783Z,24.97
2022-12-03T08:23:49.648Z,33.30
2022-12-03T08:26:25.968Z,29.23
2022-12-03T08:28:54.193Z,31.87
2022-12-03T08:31:32.901Z,26.63
2022-12-03T08:34:18.553Z,34.80
2022-12-03T08:36:46.611Z,28.90
2022-12-03T08:39:30.724Z,25.87
2022-12-03T08:42:38.549Z,32.80
2022-12-03T08:45:40.504Z,26.97
2022-12-03T08:48:25.752Z,29.20
2022-12-03T08:50:56.920Z,25.97
2022-12-03T08:53:46.602Z,25.77
2022-12-03T08:56:30.631Z,24.67
2022-12-03T08:59:13.260Z,27.73
2022-12-03T09:01:49.188Z,28.67
2022-12-03T09:04:37.442Z,28.10
2022-12-03T09:07:05.481Z,35.20
2022-12-03T09:09:34.796Z,38.23
2022-12-03T09:12:02.984Z,29.47
2022-12-03T09:14:30.873Z,32.67
2022-12-03T09:16:58.670Z,28.27
2022-12-03T09:19:27.935Z,32.30
2022-12-03T09:21:55.702Z,30.50
2022-12-03T09:24:23.511Z,35.67
2022-12-03T09:26:51.409Z,31.17
2022-12-03T09:29:19.067Z,29.57
2022-12-03T09:31:46.983Z,33.10
2022-12-03T09:34:14.764Z,31.83
2022-12-03T09:36:42.516Z,31.67
2022-12-03T09:39:10.348Z,33.23
2022-12-03T09:41:38.241Z,31.07
2022-12-03T09:44:06.989Z,32.17
2022-12-03T09:46:37.993Z,27.20
2022-12-03T09:49:13.934Z,31.67
2022-12-03T09:51:44.363Z,28.07
2022-12-03T09:54:21.403Z,30.10
2022-12-03T09:56:49.179Z,27.10
2022-12-03T09:59:17.662Z,34.40
2022-12-03T10:01:45.342Z,31.30
2022-12-03T10:04:13.141Z,32.83
2022-12-03T10:06:45.602Z,33.97
2022-12-03T10:09:17.594Z,34.00
2022-12-03T10:11:45.457Z,28.63
2022-12-03T10:14:17.380Z,30.33
2022-12-03T10:16:45.270Z,30.60
2022-12-03T10:19:22.105Z,37.97
2022-12-03T10:21:49.640Z,29.23
2022-12-03T10:24:28.221Z,37.20
2022-12-03T10:26:58.637Z,29.00
2022-12-03T10:29:33.908Z,32.20
2022-12-03T10:32:07.041Z,35.93
2022-12-03T10:34:37.365Z,30.67
2022-12-03T10:37:21.316Z,33.03
2022-12-03T10:39:59.937Z,31.63
2022-12-03T10:42:30.234Z,29.00
2022-12-03T10:45:15.515Z,25.80
2022-12-03T10:47:44.299Z,31.93
2022-12-03T10:50:19.161Z,33.37
2022-12-03T10:52:47.196Z,30.57
2022-12-03T10:55:16.410Z,34.00
2022-12-03T10:57:46.122Z,35.27
2022-12-03T11:00:17.719Z,34.60
2022-12-03T11:02:56.100Z,34.07
2022-12-03T11:05:27.626Z,33.20
2022-12-03T11:07:56.182Z,37.00
2022-12-03T11:10:24.232Z,31.70
2022-12-03T11:13:22.410Z,34.07
2022-12-03T11:15:50.261Z,35.33
2022-12-03T11:18:53.018Z,34.50
2022-12-03T11:21:20.803Z,34.15
2022-12-03T11:24:17.629Z,30.03
2022-12-03T11:27:08.105Z,28.60
2022-12-03T11:29:55.955Z,34.27
2022-12-03T11:32:58.642Z,30.10
2022-12-03T11:35:34.974Z,32.25
2022-12-03T11:38:38.709Z,33.20
2022-12-03T11:41:21.323Z,32.90
2022-12-03T11:44:01.568Z,31.45
2022-12-03T11:46:46.927Z,35.90
2022-12-03T11:49:24.966Z,32.60
2022-12-03T11:51:52.570Z,33.23
2022-12-03T11:54:23.264Z,32.30
2022-12-03T11:56:52.198Z,33.03
2022-12-03T11:59:20.205Z,34.47
2022-12-03T12:01:48.162Z,33.10
2022-12-03T12:04:33.895Z,31.40
2022-12-03T12:07:02.018Z,36.13
2022-12-03T12:09:54.077Z,29.60
2022-12-03T12:12:32.911Z,32.90
2022-12-03T12:15:00.709Z,33.93
2022-12-03T12:17:32.450Z,30.23
2022-12-03T12:20:30.536Z,33.15
2022-12-03T12:23:22.185Z,28.70
2022-12-03T12:25:54.240Z,35.47
2022-12-03T12:28:22.147Z,29.15
2022-12-03T12:30:49.844Z,38.43
2022-12-03T12:33:23.613Z,29.67
2022-12-03T12:35:51.974Z,51.63
2022-12-03T12:38:20.951Z,39.20
2022-12-03T12:40:50.370Z,32.37
2022-12-03T12:43:36.190Z,33.57
2022-12-03T12:46:46.251Z,40.83
2022-12-03T12:49:05.475Z,32.13
2022-12-03T12:51:39.290Z,34.83
2022-12-03T12:54:12.527Z,29.60
2022-12-03T12:56:42.585Z,29.03
2022-12-03T12:59:15.114Z,28.23
2022-12-03T13:01:46.769Z,25.75
2022-12-03T13:04:21.132Z,19.25
2022-12-03T13:06:50.968Z,25.43
2022-12-03T13:09:27.359Z,23.97
2022-12-03T13:12:01.131Z,24.30
2022-12-03T13:14:35.345Z,20.73
2022-12-03T13:17:14.376Z,25.17
2022-12-03T13:19:48.279Z,23.47
2022-12-03T13:22:20.680Z,16.97
2022-12-03T13:24:51.520Z,17.80
2022-12-03T13:27:28.906Z,13.00
2022-12-03T13:30:16.017Z,13.37
2022-12-03T13:32:44.251Z,15.53
2022-12-03T13:35:30.780Z,13.10
2022-12-03T13:37:59.329Z,7.33
2022-12-03T13:40:30.895Z,10.93
2022-12-03T13:42:59.079Z,14.40
2022-12-03T13:45:36.152Z,16.10
2022-12-03T13:48:17.010Z,14.10
2022-12-03T13:50:46.324Z,15.60
2022-12-03T13:53:32.958Z,10.30
2022-12-03T13:56:31.098Z,13.30
2022-12-03T13:59:00.864Z,11.63
2022-12-03T14:01:29.055Z,11.13
2022-12-03T14:03:57.315Z,12.57
2022-12-03T14:06:25.099Z,15.30
2022-12-03T14:08:53.087Z,12.20
2022-12-03T14:11:38.894Z,11.70
2022-12-03T14:14:06.876Z,15.00
2022-12-03T14:16:34.834Z,11.10
2022-12-03T14:19:02.748Z,13.13
2022-12-03T14:21:31.421Z,19.13
2022-12-03T14:23:59.039Z,17.53
2022-12-03T14:26:27.870Z,17.07
2022-12-03T14:28:56.610Z,18.10
2022-12-03T14:31:26.000Z,15.07
2022-12-03T14:33:57.308Z,18.07
2022-12-03T14:36:25.720Z,16.80
2022-12-03T14:38:53.483Z,20.73
2022-12-03T14:41:36.629Z,18.67
2022-12-03T14:44:04.507Z,18.37
2022-12-03T14:46:32.295Z,19.70
2022-12-03T14:49:00.333Z,17.13
2022-12-03T14:51:28.443Z,16.17
2022-12-03T14:53:56.323Z,18.30
2022-12-03T14:56:26.935Z,21.00
2022-12-03T14:58:55.037Z,21.77
2022-12-03T15:01:23.122Z,14.63
2022-12-03T15:03:51.361Z,19.97
2022-12-03T15:06:19.140Z,18.40
2022-12-03T15:08:47.060Z,19.27
2022-12-03T15:11:19.574Z,19.63
2022-12-03T15:13:47.173Z,18.52
2022-12-03T15:16:16.374Z,22.20
2022-12-03T15:18:47.306Z,18.33
2022-12-03T15:21:16.413Z,17.93
2022-12-03T15:23:46.991Z,17.90
2022-12-03T15:26:17.549Z,23.93
2022-12-03T15:28:50.679Z,18.87
2022-12-03T15:31:21.230Z,21.47
2022-12-03T15:33:51.915Z,19.87
2022-12-03T15:36:19.864Z,22.43
2022-12-03T15:38:51.336Z,20.33
2022-12-03T15:41:22.036Z,19.37
2022-12-03T15:43:51.130Z,18.60
2022-12-03T15:46:26.816Z,18.70
2022-12-03T15:48:59.516Z,18.60
2022-12-03T15:51:34.019Z,20.73
2022-12-03T15:54:06.865Z,19.67
2022-12-03T15:56:37.834Z,22.57
2022-12-03T15:59:06.557Z,19.20
2022-12-03T16:01:42.949Z,16.73
2022-12-03T16:04:13.390Z,19.43
2022-12-03T16:06:41.566Z,22.80
2022-12-03T16:09:09.395Z,16.53
2022-12-03T16:11:39.294Z,16.87
2022-12-03T16:14:08.677Z,16.67
2022-12-03T16:16:37.512Z,17.13
2022-12-03T16:19:05.777Z,16.37
2022-12-03T16:21:39.813Z,16.70
2022-12-03T16:24:10.071Z,12.10
2022-12-03T16:26:41.845Z,14.00
2022-12-03T16:29:13.599Z,13.63
2022-12-03T16:31:44.638Z,12.38
2022-12-03T16:34:17.077Z,7.73
2022-12-03T16:36:54.903Z,12.17
2022-12-03T16:39:27.746Z,8.70
2022-12-03T16:41:57.315Z,9.50
2022-12-03T16:44:50.321Z,10.63
2022-12-03T16:49:51.123Z,11.00
2022-12-03T16:52:23.680Z,15.33
2022-12-03T16:54:54.040Z,10.40
2022-12-03T16:57:28.887Z,11.43
2022-12-03T17:00:05.259Z,10.67
2022-12-03T17:02:34.050Z,8.32
2022-12-03T17:05:02.418Z,15.87
2022-12-03T17:07:39.219Z,13.07
2022-12-03T17:10:07.770Z,13.50
2022-12-03T17:13:07.766Z,11.53
2022-12-03T17:15:25.946Z,15.77
2022-12-03T17:17:57.061Z,15.67
2022-12-03T17:20:26.900Z,18.30
2022-12-03T17:22:54.722Z,13.27
2022-12-03T17:25:22.619Z,14.37
2022-12-03T17:27:51.195Z,14.60
2022-12-03T17:30:19.216Z,17.83
2022-12-03T17:32:48.678Z,15.33
2022-12-03T17:35:16.312Z,13.77
2022-12-03T17:37:44.292Z,18.27
2022-12-03T17:40:14.471Z,13.10
2022-12-03T17:42:42.721Z,15.37
2022-12-03T17:45:12.121Z,11.40
2022-12-03T17:47:40.798Z,13.03
2022-12-03T17:50:09.490Z,14.77
2022-12-03T17:52:37.483Z,12.63
2022-12-03T17:55:21.167Z,10.70
2022-12-03T17:57:53.434Z,13.90
2022-12-03T18:00:21.668Z,11.13
2022-12-03T18:02:49.664Z,9.43
2022-12-03T18:05:17.563Z,11.73
2022-12-03T18:07:48.719Z,11.53
2022-12-03T18:10:16.839Z,12.60
2022-12-03T18:12:44.676Z,13.40
2022-12-03T18:15:12.504Z,14.03
2022-12-03T18:17:40.804Z,12.77
2022-12-03T18:20:09.171Z,11.47
2022-12-03T18:22:38.045Z,15.03
2022-12-03T18:25:08.524Z,12.73
2022-12-03T18:27:39.388Z,12.30
2022-12-03T18:30:08.446Z,13.85
2022-12-03T18:32:36.825Z,12.77
2022-12-03T18:35:08.144Z,15.57
2022-12-03T18:37:36.610Z,12.30
2022-12-03T18:40:12.878Z,13.23
2022-12-03T18:42:41.417Z,13.67
2022-12-03T18:45:13.597Z,12.13
2022-12-03T18:47:41.968Z,15.40
2022-12-03T18:50:13.352Z,10.33
2022-12-03T18:52:41.558Z,9.00
2022-12-03T18:55:14.633Z,11.30
2022-12-03T18:57:43.392Z,15.53
2022-12-03T19:00:13.733Z,11.30
2022-12-03T19:05:29.851Z,15.43
2022-12-03T19:07:58.200Z,12.23
2022-12-03T19:10:26.504Z,15.20
2022-12-03T19:12:54.422Z,12.17
2022-12-03T19:15:23.113Z,13.40
2022-12-03T19:17:54.315Z,15.17
2022-12-03T19:20:25.268Z,17.57
2022-12-03T19:22:58.041Z,17.23
2022-12-03T19:25:28.744Z,11.93
2022-12-03T19:28:01.946Z,13.07
2022-12-03T19:30:31.342Z,13.53
2022-12-03T19:33:02.014Z,13.53
2022-12-03T19:35:30.875Z,17.20
2022-12-03T19:38:04.363Z,8.60
2022-12-03T19:40:36.027Z,13.53
2022-12-03T19:43:04.798Z,16.50
2022-12-03T19:45:42.832Z,12.23
2022-12-03T19:48:15.444Z,14.73
2022-12-03T19:51:13.528Z,20.13
2022-12-03T19:53:46.921Z,15.80
2022-12-03T19:56:17.629Z,14.53
2022-12-03T19:58:51.653Z,16.13
2022-12-03T20:01:21.952Z,18.33
2022-12-03T20:03:57.128Z,16.87
2022-12-03T20:06:28.443Z,19.00
2022-12-03T20:09:03.547Z,18.90
2022-12-03T20:11:35.079Z,16.80
2022-12-03T20:14:07.587Z,15.07
2022-12-03T20:16:38.135Z,18.30
2022-12-03T20:19:07.729Z,15.03
2022-12-03T20:21:40.594Z,21.13
2022-12-03T20:24:10.428Z,16.53
2022-12-03T20:26:40.362Z,16.60
2022-12-03T20:29:12.821Z,19.23
2022-12-03T20:31:42.968Z,15.77
2022-12-03T20:34:11.215Z,19.13
2022-12-03T20:36:40.219Z,16.67
2022-12-03T20:39:10.800Z,15.53
2022-12-03T20:41:42.361Z,21.83
2022-12-03T20:44:14.833Z,21.43
2022-12-03T20:46:42.990Z,14.85
2022-12-03T20:49:13.817Z,14.33
2022-12-03T20:51:42.818Z,17.10
2022-12-03T20:54:11.051Z,16.10
2022-12-03T20:56:40.307Z,15.67
2022-12-03T20:59:13.562Z,19.70
2022-12-03T21:01:41.436Z,15.43
2022-12-03T21:04:09.801Z,17.53
2022-12-03T21:06:38.273Z,17.50
2022-12-03T21:09:10.420Z,16.73
2022-12-03T21:11:41.682Z,14.02
2022-12-03T21:14:11.000Z,17.33
2022-12-03T21:19:30.319Z,16.80
2022-12-03T21:21:57.968Z,16.20
2022-12-03T21:24:25.767Z,16.37
2022-12-03T21:26:53.781Z,17.27
2022-12-03T21:29:24.425Z,19.13
2022-12-03T21:31:52.420Z,15.60
2022-12-03T21:34:20.460Z,18.00
2022-12-03T21:36:48.427Z,15.43
2022-12-03T21:39:17.341Z,20.23
2022-12-03T21:42:18.753Z,15.57
2022-12-03T21:44:33.051Z,21.37
2022-12-03T21:47:10.159Z,18.43
2022-12-03T21:49:40.906Z,16.97
2022-12-03T21:52:08.826Z,18.90
2022-12-03T21:54:36.511Z,16.23
2022-12-03T21:57:04.558Z,18.57
2022-12-03T21:59:32.529Z,17.13
2022-12-03T22:02:01.451Z,17.33
2022-12-03T22:04:29.031Z,17.17
2022-12-03T22:06:57.078Z,20.87
2022-12-03T22:09:26.690Z,18.73
2022-12-03T22:11:56.994Z,19.73
2022-12-03T22:14:24.717Z,18.57
2022-12-03T22:16:52.699Z,19.07
2022-12-03T22:19:23.519Z,23.17
2022-12-03T22:21:51.358Z,20.67
2022-12-03T22:24:19.823Z,21.10
2022-12-03T22:26:47.939Z,24.93
2022-12-03T22:29:16.054Z,23.03
2022-12-03T22:31:43.844Z,24.10
2022-12-03T22:34:11.610Z,23.00
2022-12-03T22:36:39.500Z,17.87
2022-12-03T22:39:07.233Z,21.73
2022-12-03T22:41:35.155Z,16.97
2022-12-03T22:44:03.004Z,20.60
2022-12-03T22:46:30.836Z,21.20
2022-12-03T22:49:03.399Z,20.27
2022-12-03T22:51:34.916Z,22.93
2022-12-03T22:54:02.911Z,21.53
2022-12-03T22:56:30.842Z,21.07
2022-12-03T22:58:59.155Z,17.80
2022-12-03T23:01:31.068Z,19.13
2022-12-03T23:03:59.316Z,12.60
2022-12-03T23:06:28.340Z,17.40
2022-12-03T23:08:56.812Z,15.93
2022-12-03T23:11:24.444Z,21.73
2022-12-03T23:13:52.480Z,18.00
2022-12-03T23:16:23.557Z,17.80
2022-12-03T23:18:51.439Z,15.13
2022-12-03T23:21:28.858Z,18.10
2022-12-03T23:23:59.116Z,18.97
2022-12-03T23:26:27.127Z,18.20
2022-12-03T23:28:54.905Z,18.83
2022-12-03T23:31:25.817Z,19.47
2022-12-03T23:33:53.726Z,17.00
2022-12-03T23:36:22.516Z,20.73
2022-12-03T23:38:50.336Z,18.47
2022-12-03T23:41:20.315Z,19.10
2022-12-03T23:43:48.463Z,18.83
2022-12-03T23:46:21.826Z,16.90
2022-12-03T23:48:50.012Z,17.60
2022-12-03T23:51:20.972Z,16.03
2022-12-03T23:53:49.041Z,19.73
2022-12-03T23:56:19.541Z,18.30
2022-12-03T23:58:50.403Z,20.07
